createdAt,value
2023-02-03T00:00:40.221Z,7.03
2023-02-03T00:03:06.539Z,7.12
2023-02-03T00:05:34.435Z,6.92
2023-02-03T00:08:02.450Z,6.69
2023-02-03T00:10:28.659Z,6.98
2023-02-03T00:12:55.613Z,7.01
2023-02-03T00:15:22.567Z,6.52
2023-02-03T00:17:48.817Z,6.64
2023-02-03T00:20:14.967Z,6.84
2023-02-03T00:22:41.036Z,7.06
2023-02-03T00:25:07.308Z,6.21
2023-02-03T00:27:33.428Z,7.18
2023-02-03T00:29:59.610Z,6.65
2023-02-03T00:32:25.837Z,7.15
2023-02-03T00:34:51.935Z,7.07
2023-02-03T00:37:18.046Z,6.96
2023-02-03T00:39:44.107Z,7.33
2023-02-03T00:42:10.169Z,7.36
2023-02-03T00:44:36.321Z,7.22
2023-02-03T00:47:02.404Z,7.34
2023-02-03T00:49:28.487Z,6.86
2023-02-03T00:51:54.564Z,7.54
2023-02-03T00:54:20.684Z,7.54
2023-02-03T00:56:46.752Z,7.52
2023-02-03T00:59:12.837Z,7.55
2023-02-03T01:01:38.944Z,7.64
2023-02-03T01:04:05.277Z,7.70
2023-02-03T01:06:31.484Z,7.70
2023-02-03T01:08:57.573Z,7.79
2023-02-03T01:11:26.448Z,7.77
2023-02-03T01:13:54.612Z,7.74
2023-02-03T01:16:22.816Z,7.77
2023-02-03T01:18:49.792Z,7.80
2023-02-03T01:21:21.219Z,7.81
2023-02-03T01:23:47.433Z,8.01
2023-02-03T01:26:15.938Z,7.85
2023-02-03T01:28:42.115Z,7.91
2023-02-03T01:31:13.428Z,6.80
2023-02-03T01:33:40.335Z,7.89
2023-02-03T01:36:09.194Z,6.37
2023-02-03T01:38:36.738Z,7.93
2023-02-03T01:41:04.581Z,6.12
2023-02-03T01:43:36.477Z,7.90
2023-02-03T01:46:20.020Z,7.95
2023-02-03T01:48:46.171Z,7.48
2023-02-03T01:51:12.341Z,8.01
2023-02-03T01:53:38.663Z,7.92
2023-02-03T01:56:05.553Z,8.05
2023-02-03T01:58:33.349Z,7.95
2023-02-03T02:00:59.491Z,8.14
2023-02-03T02:03:31.224Z,8.00
2023-02-03T02:06:04.191Z,8.09
2023-02-03T02:08:30.981Z,8.06
2023-02-03T02:10:58.667Z,7.98
2023-02-03T02:13:25.083Z,7.99
2023-02-03T02:16:11.919Z,8.08
2023-02-03T02:18:45.680Z,8.03
2023-02-03T02:21:17.224Z,8.12
2023-02-03T02:23:49.363Z,7.96
2023-02-03T02:26:18.378Z,7.97
2023-02-03T02:29:10.573Z,8.10
2023-02-03T02:31:55.441Z,8.08
2023-02-03T02:34:37.116Z,8.11
2023-02-03T02:37:23.611Z,8.17
2023-02-03T02:40:01.403Z,8.11
2023-02-03T02:42:51.117Z,8.18
2023-02-03T02:45:23.216Z,8.25
2023-02-03T02:47:50.277Z,8.28
2023-02-03T02:50:22.212Z,8.08
2023-02-03T02:52:49.447Z,8.27
2023-02-03T02:55:24.084Z,7.76
2023-02-03T02:57:51.800Z,8.10
2023-02-03T03:00:18.142Z,8.12
2023-02-03T03:02:44.479Z,8.07
2023-02-03T03:05:11.519Z,8.17
2023-02-03T03:07:54.612Z,8.04
2023-02-03T03:10:24.047Z,8.21
2023-02-03T03:12:54.597Z,8.19
2023-02-03T03:15:23.669Z,8.35
2023-02-03T03:18:00.918Z,8.33
2023-02-03T03:20:27.466Z,8.16
2023-02-03T03:22:58.325Z,8.31
2023-02-03T03:25:29.728Z,8.40
2023-02-03T03:27:58.871Z,8.29
2023-02-03T03:30:27.650Z,8.35
2023-02-03T03:32:54.519Z,8.16
2023-02-03T03:35:20.661Z,7.84
2023-02-03T03:37:58.171Z,8.40
2023-02-03T03:40:32.373Z,8.26
2023-02-03T03:43:01.833Z,8.36
2023-02-03T03:45:32.436Z,8.23
2023-02-03T03:48:09.176Z,8.19
2023-02-03T03:50:38.972Z,7.36
2023-02-03T03:53:05.463Z,8.38
2023-02-03T03:55:33.720Z,7.63
2023-02-03T03:58:05.569Z,8.30
2023-02-03T04:00:34.208Z,8.33
2023-02-03T04:03:21.804Z,8.32
2023-02-03T04:05:47.988Z,8.04
2023-02-03T04:08:14.114Z,8.30
2023-02-03T04:10:41.845Z,8.47
2023-02-03T04:13:09.242Z,8.50
2023-02-03T04:15:35.961Z,8.37
2023-02-03T04:18:02.611Z,8.25
2023-02-03T04:20:30.337Z,8.33
2023-02-03T04:22:56.691Z,8.42
2023-02-03T04:25:23.267Z,8.36
2023-02-03T04:27:49.701Z,5.01
2023-02-03T04:30:17.676Z,8.36
2023-02-03T04:32:45.001Z,8.46
2023-02-03T04:35:11.418Z,7.17
2023-02-03T04:37:37.576Z,7.87
2023-02-03T04:40:04.293Z,8.45
2023-02-03T04:42:30.419Z,8.64
2023-02-03T04:44:56.540Z,8.56
2023-02-03T04:47:22.683Z,8.54
2023-02-03T04:49:48.743Z,8.09
2023-02-03T04:52:14.963Z,8.53
2023-02-03T04:54:41.068Z,8.51
2023-02-03T04:57:07.227Z,7.17
2023-02-03T04:59:33.286Z,8.70
2023-02-03T05:02:03.328Z,8.53
2023-02-03T05:04:29.666Z,8.49
2023-02-03T05:06:56.791Z,8.42
2023-02-03T05:09:26.912Z,8.50
2023-02-03T05:11:53.125Z,8.62
2023-02-03T05:14:19.390Z,8.58
2023-02-03T05:16:46.410Z,8.58
2023-02-03T05:19:13.022Z,8.67
2023-02-03T05:21:39.183Z,8.79
2023-02-03T05:24:07.159Z,8.62
2023-02-03T05:26:34.406Z,8.13
2023-02-03T05:29:00.727Z,7.97
2023-02-03T05:31:27.171Z,8.23
2023-02-03T05:33:53.256Z,8.45
2023-02-03T05:36:19.413Z,8.45
2023-02-03T05:38:45.546Z,8.56
2023-02-03T05:41:30.530Z,8.26
2023-02-03T05:43:56.650Z,8.60
2023-02-03T05:46:22.815Z,8.51
2023-02-03T05:48:48.951Z,8.33
2023-02-03T05:51:15.006Z,8.37
2023-02-03T05:53:41.070Z,8.14
2023-02-03T05:56:07.177Z,8.56
2023-02-03T05:58:33.281Z,8.52
2023-02-03T06:00:59.349Z,8.55
2023-02-03T06:03:25.504Z,7.75
2023-02-03T06:05:51.666Z,8.59
2023-02-03T06:08:17.742Z,8.49
2023-02-03T06:10:43.860Z,8.59
2023-02-03T06:13:11.570Z,7.56
2023-02-03T06:15:38.291Z,8.72
2023-02-03T06:18:04.417Z,8.70
2023-02-03T06:20:30.778Z,8.61
2023-02-03T06:22:56.878Z,8.71
2023-02-03T06:25:23.611Z,8.64
2023-02-03T06:27:50.313Z,8.55
2023-02-03T06:30:16.832Z,6.61
2023-02-03T06:32:42.944Z,8.51
2023-02-03T06:35:09.224Z,8.68
2023-02-03T06:37:35.591Z,8.60
2023-02-03T06:40:03.663Z,7.95
2023-02-03T06:42:30.187Z,8.72
2023-02-03T06:44:56.282Z,8.78
2023-02-03T06:47:22.435Z,8.78
2023-02-03T06:49:48.485Z,8.81
2023-02-03T06:52:14.896Z,8.95
2023-02-03T06:54:41.244Z,8.60
2023-02-03T06:57:07.409Z,8.97
2023-02-03T06:59:33.553Z,8.88
2023-02-03T07:01:59.589Z,8.92
2023-02-03T07:04:29.357Z,8.84
2023-02-03T07:06:56.768Z,8.72
2023-02-03T07:09:23.176Z,8.59
2023-02-03T07:11:49.429Z,8.41
2023-02-03T07:14:15.525Z,8.90
2023-02-03T07:16:41.619Z,8.84
2023-02-03T07:19:07.684Z,8.93
2023-02-03T07:21:33.750Z,8.67
2023-02-03T07:24:01.619Z,8.73
2023-02-03T07:26:28.126Z,8.77
2023-02-03T07:28:54.302Z,8.87
2023-02-03T07:31:21.136Z,8.86
2023-02-03T07:33:47.438Z,8.75
2023-02-03T07:36:13.522Z,8.55
2023-02-03T07:38:39.597Z,8.14
2023-02-03T07:41:06.232Z,8.75
2023-02-03T07:43:32.327Z,8.92
2023-02-03T07:45:58.949Z,8.65
2023-02-03T07:48:25.007Z,8.70
2023-02-03T07:50:52.146Z,8.82
2023-02-03T07:53:18.649Z,8.81
2023-02-03T07:55:44.729Z,8.96
2023-02-03T07:58:10.980Z,8.97
2023-02-03T08:00:37.103Z,9.00
2023-02-03T08:03:03.660Z,9.00
2023-02-03T08:05:29.787Z,8.95
2023-02-03T08:07:56.795Z,7.42
2023-02-03T08:10:23.142Z,8.98
2023-02-03T08:12:52.710Z,9.14
2023-02-03T08:15:18.922Z,9.09
2023-02-03T08:17:45.629Z,8.04
2023-02-03T08:20:12.096Z,9.23
2023-02-03T08:22:38.155Z,9.26
2023-02-03T08:25:04.582Z,9.28
2023-02-03T08:27:31.341Z,9.30
2023-02-03T08:29:57.485Z,9.18
2023-02-03T08:32:24.269Z,9.43
2023-02-03T08:34:51.271Z,9.38
2023-02-03T08:37:19.936Z,9.37
2023-02-03T08:39:46.170Z,9.34
2023-02-03T08:42:12.342Z,9.50
2023-02-03T08:44:38.458Z,9.44
2023-02-03T08:47:05.581Z,9.28
2023-02-03T08:49:31.798Z,9.35
2023-02-03T08:51:58.257Z,9.47
2023-02-03T08:54:24.942Z,9.31
2023-02-03T08:56:51.211Z,9.30
2023-02-03T08:59:17.567Z,7.99
2023-02-03T09:01:45.162Z,9.28
2023-02-03T09:04:23.671Z,9.23
2023-02-03T09:06:53.857Z,9.12
2023-02-03T09:09:20.990Z,9.29
2023-02-03T09:11:47.227Z,8.70
2023-02-03T09:14:13.495Z,8.27
2023-02-03T09:16:39.745Z,9.39
2023-02-03T09:19:06.241Z,9.17
2023-02-03T09:21:36.043Z,8.84
2023-02-03T09:24:08.192Z,9.43
2023-02-03T09:26:34.401Z,9.15
2023-02-03T09:29:00.577Z,9.39
2023-02-03T09:31:26.710Z,7.79
2023-02-03T09:33:52.801Z,9.14
2023-02-03T09:36:18.882Z,9.41
2023-02-03T09:38:44.986Z,9.45
2023-02-03T09:41:13.975Z,9.49
2023-02-03T09:44:01.926Z,9.49
2023-02-03T09:46:32.193Z,9.61
2023-02-03T09:49:12.804Z,9.45
2023-02-03T09:51:48.669Z,9.10
2023-02-03T09:54:42.819Z,9.53
2023-02-03T09:57:15.577Z,9.52
2023-02-03T09:59:41.819Z,9.57
2023-02-03T10:02:24.968Z,9.54
2023-02-03T10:05:35.963Z,9.48
2023-02-03T10:08:11.899Z,9.13
2023-02-03T10:10:49.438Z,9.52
2023-02-03T10:13:25.142Z,9.46
2023-02-03T10:16:03.255Z,9.46
2023-02-03T10:18:33.643Z,9.61
2023-02-03T10:21:02.802Z,8.53
2023-02-03T10:23:38.196Z,9.43
2023-02-03T10:26:09.713Z,7.64
2023-02-03T10:28:38.828Z,9.43
2023-02-03T10:31:13.803Z,9.67
2023-02-03T10:33:40.045Z,9.66
2023-02-03T10:36:22.209Z,9.66
2023-02-03T10:39:10.146Z,9.50
2023-02-03T10:41:36.233Z,9.40
2023-02-03T10:44:05.991Z,8.91
2023-02-03T10:46:35.211Z,9.65
2023-02-03T10:49:01.568Z,9.74
2023-02-03T10:51:31.127Z,8.68
2023-02-03T10:53:58.248Z,9.77
2023-02-03T10:56:26.872Z,9.13
2023-02-03T10:58:55.792Z,9.79
2023-02-03T11:01:25.203Z,9.61
2023-02-03T11:04:00.147Z,9.76
2023-02-03T11:06:26.879Z,9.70
2023-02-03T11:08:53.576Z,9.73
2023-02-03T11:11:20.076Z,9.63
2023-02-03T11:13:48.095Z,8.32
2023-02-03T11:16:17.140Z,9.65
2023-02-03T11:18:58.737Z,9.65
2023-02-03T11:21:33.148Z,9.75
2023-02-03T11:24:06.214Z,9.62
2023-02-03T11:26:35.646Z,9.87
2023-02-03T11:29:03.330Z,9.64
2023-02-03T11:31:32.973Z,8.53
2023-02-03T11:34:19.214Z,9.75
2023-02-03T11:36:45.260Z,5.49
2023-02-03T11:39:18.682Z,9.85
2023-02-03T11:41:46.489Z,9.27
2023-02-03T11:44:18.511Z,9.88
2023-02-03T11:46:47.301Z,9.73
2023-02-03T11:50:10.317Z,9.81
2023-02-03T11:52:58.098Z,9.79
2023-02-03T11:55:31.966Z,9.95
2023-02-03T11:58:09.790Z,9.81
2023-02-03T12:01:03.195Z,9.89
2023-02-03T12:03:51.629Z,9.63
2023-02-03T12:06:27.046Z,9.73
2023-02-03T12:09:08.477Z,9.79
2023-02-03T12:12:02.449Z,9.77
2023-02-03T12:14:48.875Z,9.49
2023-02-03T12:17:33.912Z,9.67
2023-02-03T12:20:04.783Z,9.61
2023-02-03T12:22:47.875Z,9.67
2023-02-03T12:25:38.706Z,9.66
2023-02-03T12:28:36.905Z,9.61
2023-02-03T12:31:28.563Z,9.80
2023-02-03T12:34:05.409Z,9.95
2023-02-03T12:37:04.431Z,9.65
2023-02-03T12:39:53.056Z,9.36
2023-02-03T12:42:24.131Z,9.77
2023-02-03T12:45:00.380Z,9.64
2023-02-03T12:47:35.626Z,9.60
2023-02-03T12:50:40.082Z,9.88
2023-02-03T12:53:15.436Z,9.75
2023-02-03T12:55:45.811Z,9.65
2023-02-03T12:58:21.154Z,9.72
2023-02-03T13:01:01.667Z,9.17
2023-02-03T13:03:51.260Z,9.65
2023-02-03T13:06:25.473Z,9.70
2023-02-03T13:08:57.693Z,9.15
2023-02-03T13:11:29.659Z,9.81
2023-02-03T13:14:01.496Z,9.59
2023-02-03T13:16:38.667Z,9.72
2023-02-03T13:19:16.925Z,8.65
2023-02-03T13:21:43.312Z,9.54
2023-02-03T13:24:10.541Z,9.26
2023-02-03T13:26:49.190Z,9.53
2023-02-03T13:29:52.023Z,9.29
2023-02-03T13:32:27.113Z,9.35
2023-02-03T13:35:08.358Z,9.41
2023-02-03T13:37:46.683Z,9.34
2023-02-03T13:40:21.592Z,9.05
2023-02-03T13:42:52.990Z,8.31
2023-02-03T13:45:25.998Z,9.00
2023-02-03T13:47:55.342Z,7.42
2023-02-03T13:50:25.172Z,9.04
2023-02-03T13:53:09.053Z,8.96
2023-02-03T13:55:40.458Z,9.19
2023-02-03T13:58:38.345Z,9.17
2023-02-03T14:01:07.265Z,9.11
2023-02-03T14:03:36.397Z,9.11
2023-02-03T14:06:02.928Z,9.13
2023-02-03T14:08:28.972Z,9.05
2023-02-03T14:11:32.683Z,9.34
2023-02-03T14:14:07.823Z,9.34
2023-02-03T14:16:37.712Z,9.37
2023-02-03T14:19:05.398Z,9.15
2023-02-03T14:21:48.883Z,9.25
2023-02-03T14:24:15.500Z,9.45
2023-02-03T14:26:47.693Z,9.31
2023-02-03T14:29:28.819Z,9.09
2023-02-03T14:32:03.079Z,9.11
2023-02-03T14:34:31.920Z,9.03
2023-02-03T14:37:08.539Z,9.03
2023-02-03T14:39:43.161Z,9.26
2023-02-03T14:42:18.929Z,8.63
2023-02-03T14:44:47.994Z,9.18
2023-02-03T14:47:33.335Z,9.43
2023-02-03T14:50:23.687Z,9.04
2023-02-03T14:53:12.347Z,9.15
2023-02-03T14:56:00.211Z,9.20
2023-02-03T14:58:33.354Z,8.26
2023-02-03T15:01:04.068Z,8.56
2023-02-03T15:03:30.616Z,8.98
2023-02-03T15:05:57.895Z,9.25
2023-02-03T15:08:35.828Z,9.49
2023-02-03T15:11:37.911Z,9.30
2023-02-03T15:14:19.518Z,9.05
2023-02-03T15:16:48.113Z,9.03
2023-02-03T15:19:19.069Z,9.22
2023-02-03T15:21:45.815Z,8.48
2023-02-03T15:24:14.446Z,8.91
2023-02-03T15:26:52.402Z,9.09
2023-02-03T15:29:28.339Z,9.00
2023-02-03T15:32:18.978Z,9.04
2023-02-03T15:34:48.216Z,9.21
2023-02-03T15:37:18.211Z,8.88
2023-02-03T15:39:57.420Z,8.89
2023-02-03T15:42:28.924Z,7.83
2023-02-03T15:45:07.084Z,9.05
2023-02-03T15:47:44.677Z,8.83
2023-02-03T15:50:26.083Z,8.91
2023-02-03T15:52:55.103Z,7.40
2023-02-03T15:55:32.379Z,8.81
2023-02-03T15:57:58.803Z,8.98
2023-02-03T16:00:29.203Z,8.82
2023-02-03T16:02:57.510Z,8.45
2023-02-03T16:05:27.132Z,7.92
2023-02-03T16:07:53.312Z,8.99
2023-02-03T16:10:28.979Z,8.73
2023-02-03T16:13:20.183Z,8.91
2023-02-03T16:16:13.977Z,8.88
2023-02-03T16:18:40.306Z,8.73
2023-02-03T16:21:31.047Z,8.84
2023-02-03T16:24:01.655Z,8.76
2023-02-03T16:26:29.958Z,8.52
2023-02-03T16:29:15.390Z,8.58
2023-02-03T16:32:03.280Z,8.72
2023-02-03T16:34:48.139Z,8.48
2023-02-03T16:37:42.905Z,8.32
2023-02-03T16:40:33.169Z,8.45
2023-02-03T16:43:17.655Z,8.58
2023-02-03T16:46:02.268Z,8.67
2023-02-03T16:48:47.049Z,8.07
2023-02-03T16:51:15.639Z,8.28
2023-02-03T16:53:47.389Z,8.15
2023-02-03T16:56:13.610Z,8.83
2023-02-03T16:58:39.861Z,8.69
2023-02-03T17:01:07.038Z,7.47
2023-02-03T17:03:34.791Z,8.62
2023-02-03T17:06:03.529Z,8.53
2023-02-03T17:08:29.731Z,7.96
2023-02-03T17:11:02.571Z,7.59
2023-02-03T17:13:28.682Z,7.96
2023-02-03T17:15:54.882Z,8.40
2023-02-03T17:18:21.378Z,8.47
2023-02-03T17:20:48.158Z,8.23
2023-02-03T17:23:15.647Z,8.46
2023-02-03T17:25:44.897Z,8.24
2023-02-03T17:28:12.780Z,8.51
2023-02-03T17:30:39.421Z,8.57
2023-02-03T17:33:11.246Z,7.81
2023-02-03T17:35:39.189Z,8.25
2023-02-03T17:38:05.335Z,7.04
2023-02-03T17:54:14.084Z,5.01
2023-02-03T17:56:40.263Z,8.60
2023-02-03T17:59:06.339Z,8.30
2023-02-03T18:01:32.559Z,8.23
2023-02-03T18:04:04.271Z,8.22
2023-02-03T18:06:32.847Z,8.27
2023-02-03T18:09:01.457Z,8.32
2023-02-03T18:11:29.541Z,7.70
2023-02-03T18:13:55.987Z,8.43
2023-02-03T18:16:27.156Z,8.35
2023-02-03T18:18:53.561Z,3.05
2023-02-03T18:21:21.564Z,8.58
2023-02-03T18:24:05.054Z,8.06
2023-02-03T18:26:35.623Z,8.27
2023-02-03T18:29:05.623Z,3.79
2023-02-03T18:31:32.411Z,8.05
2023-02-03T18:34:02.939Z,8.07
2023-02-03T18:36:29.632Z,8.30
2023-02-03T18:38:55.887Z,6.94
2023-02-03T18:41:24.054Z,8.02
2023-02-03T18:43:51.019Z,7.94
2023-02-03T18:46:26.321Z,6.25
2023-02-03T18:48:53.286Z,7.06
2023-02-03T18:51:20.602Z,8.08
2023-02-03T18:53:48.566Z,7.42
2023-02-03T18:56:16.209Z,3.09
2023-02-03T18:58:42.752Z,7.96
2023-02-03T19:01:09.090Z,7.96
2023-02-03T19:03:35.946Z,8.08
2023-02-03T19:06:08.228Z,7.81
2023-02-03T19:08:34.275Z,5.93
2023-02-03T19:11:00.300Z,7.90
2023-02-03T19:13:26.417Z,7.76
2023-02-03T19:15:52.518Z,7.84
2023-02-03T19:18:18.601Z,7.99
2023-02-03T19:20:44.754Z,7.48
2023-02-03T19:23:11.664Z,7.74
2023-02-03T19:25:38.618Z,7.66
2023-02-03T19:28:05.002Z,7.67
2023-02-03T19:30:32.190Z,7.33
2023-02-03T19:32:58.592Z,7.68
2023-02-03T19:35:24.661Z,8.16
2023-02-03T19:37:50.818Z,7.67
2023-02-03T19:40:16.964Z,7.75
2023-02-03T19:42:43.040Z,7.75
2023-02-03T19:45:09.498Z,7.26
2023-02-03T19:47:35.585Z,7.81
2023-02-03T19:50:01.691Z,7.65
2023-02-03T19:52:27.753Z,7.64
2023-02-03T19:54:55.333Z,7.58
2023-02-03T19:57:21.437Z,7.75
2023-02-03T19:59:47.529Z,7.69
2023-02-03T20:02:15.184Z,7.51
2023-02-03T20:04:43.233Z,7.50
2023-02-03T20:07:10.865Z,7.39
2023-02-03T20:09:36.980Z,7.48
2023-02-03T20:12:03.324Z,5.40
2023-02-03T20:14:29.428Z,7.49
2023-02-03T20:16:55.484Z,7.54
2023-02-03T20:19:21.532Z,7.31
2023-02-03T20:21:47.669Z,7.40
2023-02-03T20:24:13.752Z,7.40
2023-02-03T20:26:39.853Z,7.28
2023-02-03T20:29:06.265Z,7.38
2023-02-03T20:31:32.540Z,7.28
2023-02-03T20:33:58.761Z,7.24
2023-02-03T20:36:24.835Z,6.98
2023-02-03T20:38:51.063Z,7.37
2023-02-03T20:41:18.471Z,5.98
2023-02-03T20:43:45.083Z,5.38
2023-02-03T20:46:12.447Z,6.99
2023-02-03T20:48:38.883Z,7.18
2023-02-03T20:51:16.026Z,1.30
2023-02-03T20:53:43.624Z,7.20
2023-02-03T20:56:15.045Z,7.18
2023-02-03T20:58:42.499Z,7.04
2023-02-03T21:01:17.254Z,7.15
2023-02-03T21:04:02.270Z,7.12
2023-02-03T21:06:30.706Z,5.52
2023-02-03T21:09:20.998Z,7.16
2023-02-03T21:11:47.286Z,7.15
2023-02-03T21:14:19.483Z,6.90
2023-02-03T21:16:47.013Z,5.81
2023-02-03T21:19:32.836Z,7.11
2023-02-03T21:22:02.974Z,7.14
2023-02-03T21:24:31.728Z,7.21
2023-02-03T21:26:59.800Z,7.18
2023-02-03T21:29:34.979Z,7.17
2023-02-03T21:32:01.171Z,7.11
2023-02-03T21:34:28.386Z,7.19
2023-02-03T21:37:01.059Z,7.11
2023-02-03T21:39:30.785Z,7.23
2023-02-03T21:42:04.711Z,7.49
2023-02-03T21:44:33.019Z,7.21
2023-02-03T21:47:11.162Z,7.21
2023-02-03T21:49:37.285Z,7.10
2023-02-03T21:52:03.521Z,7.02
2023-02-03T21:54:32.858Z,6.87
2023-02-03T21:56:59.435Z,6.92
2023-02-03T21:59:29.310Z,7.27
2023-02-03T22:01:57.744Z,6.53
2023-02-03T22:04:29.974Z,5.82
2023-02-03T22:06:56.020Z,7.05
2023-02-03T22:09:23.950Z,6.77
2023-02-03T22:11:50.711Z,6.05
2023-02-03T22:14:17.801Z,6.89
2023-02-03T22:16:44.041Z,7.30
2023-02-03T22:19:10.562Z,7.38
2023-02-03T22:21:36.658Z,6.94
2023-02-03T22:24:02.981Z,7.12
2023-02-03T22:26:29.138Z,7.21
2023-02-03T22:28:55.288Z,7.00
2023-02-03T22:31:22.017Z,6.39
2023-02-03T22:33:48.607Z,7.43
2023-02-03T22:36:15.159Z,7.03
2023-02-03T22:38:41.948Z,7.06
2023-02-03T22:41:13.956Z,7.07
2023-02-03T22:43:45.168Z,7.42
2023-02-03T22:46:16.027Z,7.50
2023-02-03T22:48:46.743Z,6.62
2023-02-03T22:51:17.521Z,7.49
2023-02-03T22:53:52.648Z,7.12
2023-02-03T22:56:23.748Z,7.32
2023-02-03T22:58:54.867Z,7.31
2023-02-03T23:01:25.938Z,6.63
2023-02-03T23:03:56.146Z,6.29
2023-02-03T23:06:27.155Z,7.30
2023-02-03T23:08:57.872Z,7.43
2023-02-03T23:11:31.746Z,6.80
2023-02-03T23:14:01.679Z,7.91
2023-02-03T23:16:32.085Z,7.59
2023-02-03T23:19:03.294Z,7.47
2023-02-03T23:21:32.777Z,7.13
2023-02-03T23:24:03.460Z,7.53
2023-02-03T23:26:33.927Z,7.47
2023-02-03T23:29:07.799Z,6.96
2023-02-03T23:31:38.989Z,7.31
2023-02-03T23:34:26.473Z,7.21
2023-02-03T23:36:59.064Z,5.75
2023-02-03T23:39:25.127Z,7.67
2023-02-03T23:41:51.289Z,6.52
2023-02-03T23:44:17.491Z,7.19
2023-02-03T23:46:49.577Z,7.05
2023-02-03T23:49:16.116Z,6.71
2023-02-03T23:51:46.407Z,6.91
2023-02-03T23:54:16.542Z,6.91
2023-02-03T23:56:48.142Z,6.76
2023-02-03T23:59:18.875Z,6.65
